world map with LIVO marked

LIVO - Location

This information may not be accurate or current and is not valid for navigation or flight planning. No warranty of fitness for any purpose is made or implied.

flag of Italy

Donate via PayPal

Additional information is available on the NEW Great Circle Mapper

Location
City:  Tarvisio, Italy
ICAO:LIVO

Details
Latitude:46°30'N (46.500)
Longitude:13°35'E (13.583)
Elevation:2552 ft (778 m)

Time
Timezone:UTC+1 (DST+4)
Local Time:

Weather
METAR:LIVO  041355Z 08006KT CAVOK 02/M05 Q1025 RMK SKC VIS MIN 9999

Related Locations
Nearby:
Farthest:CHT: 11915 mi / 19175 km
Waitangi [Tuuta], CIT, NZ

Find:

   beyond  
but within

Other Information
Maps:
Sources:

  


 


Great Circle Mapper   Great Circle Mapper
Great Circle Mapper FAQ   Great Circle Mapper FAQ
  Karl's Home Page
KLSē   KLSē Home
   GC on Facebook
Airlines of the World   Airlines of the World
Donate via PayPal


Copyright © 2004-2019, Karl L. Swartz. All rights reserved.
All trademarks mentioned herein belong to their respective owners.

Please see credits for attribution and copyright information.

Karl Swartz <karl@kls2.com>
  Powered by FreeBSD
Valid HTML 4.01!
Labeled with ICRA
hCard Microformat
Geo Microformat